sensor_id;sensor_type;location;lat;lon;timestamp;temperature;humidity
8105;DHT22;4095;48.942;9.104;2024-02-16T00:00:26;12.60;99.90
8105;DHT22;4095;48.942;9.104;2024-02-16T00:02:52;12.60;99.90
8105;DHT22;4095;48.942;9.104;2024-02-16T00:05:18;12.60;99.90
8105;DHT22;4095;48.942;9.104;2024-02-16T00:07:44;12.50;99.90
8105;DHT22;4095;48.942;9.104;2024-02-16T00:10:09;12.60;99.90
8105;DHT22;4095;48.942;9.104;2024-02-16T00:12:36;12.60;99.90
8105;DHT22;4095;48.942;9.104;2024-02-16T00:15:02;12.60;99.90
8105;DHT22;4095;48.942;9.104;2024-02-16T00:17:28;12.60;99.90
8105;DHT22;4095;48.942;9.104;2024-02-16T00:19:57;12.70;99.90
8105;DHT22;4095;48.942;9.104;2024-02-16T00:22:23;12.80;99.90
8105;DHT22;4095;48.942;9.104;2024-02-16T00:24:49;12.90;99.90
8105;DHT22;4095;48.942;9.104;2024-02-16T00:27:15;12.90;99.90
8105;DHT22;4095;48.942;9.104;2024-02-16T00:29:41;13.00;99.90
8105;DHT22;4095;48.942;9.104;2024-02-16T00:32:07;13.10;99.90
8105;DHT22;4095;48.942;9.104;2024-02-16T00:34:34;13.10;99.90
8105;DHT22;4095;48.942;9.104;2024-02-16T00:37:00;13.10;99.90
8105;DHT22;4095;48.942;9.104;2024-02-16T00:39:25;13.10;99.90
8105;DHT22;4095;48.942;9.104;2024-02-16T00:41:51;13.10;99.90
8105;DHT22;4095;48.942;9.104;2024-02-16T00:44:17;13.10;99.90
8105;DHT22;4095;48.942;9.104;2024-02-16T00:46:46;13.10;99.90
8105;DHT22;4095;48.942;9.104;2024-02-16T00:49:12;13.10;99.90
8105;DHT22;4095;48.942;9.104;2024-02-16T00:51:38;13.00;99.90
8105;DHT22;4095;48.942;9.104;2024-02-16T00:54:04;13.00;99.90
8105;DHT22;4095;48.942;9.104;2024-02-16T00:56:31;13.00;99.90
8105;DHT22;4095;48.942;9.104;2024-02-16T00:58:57;13.00;99.90
8105;DHT22;4095;48.942;9.104;2024-02-16T01:01:22;13.00;99.90
8105;DHT22;4095;48.942;9.104;2024-02-16T01:03:50;13.00;99.90
8105;DHT22;4095;48.942;9.104;2024-02-16T01:06:17;13.00;99.90
8105;DHT22;4095;48.942;9.104;2024-02-16T01:08:42;13.00;99.90
8105;DHT22;4095;48.942;9.104;2024-02-16T01:11:08;13.00;99.90
8105;DHT22;4095;48.942;9.104;2024-02-16T01:13:34;13.00;99.90
8105;DHT22;4095;48.942;9.104;2024-02-16T01:15:59;13.00;99.90
8105;DHT22;4095;48.942;9.104;2024-02-16T01:18:27;12.90;99.90
8105;DHT22;4095;48.942;9.104;2024-02-16T01:20:53;12.90;99.90
8105;DHT22;4095;48.942;9.104;2024-02-16T01:23:22;13.00;99.90
8105;DHT22;4095;48.942;9.104;2024-02-16T01:25:47;13.00;99.90
8105;DHT22;4095;48.942;9.104;2024-02-16T01:28:14;13.00;99.90
8105;DHT22;4095;48.942;9.104;2024-02-16T01:30:40;13.00;99.90
8105;DHT22;4095;48.942;9.104;2024-02-16T01:33:05;12.90;99.90
8105;DHT22;4095;48.942;9.104;2024-02-16T01:35:32;12.90;99.90
8105;DHT22;4095;48.942;9.104;2024-02-16T01:37:58;12.90;99.90
8105;DHT22;4095;48.942;9.104;2024-02-16T01:40:24;12.90;99.90
8105;DHT22;4095;48.942;9.104;2024-02-16T01:42:51;12.90;99.90
8105;DHT22;4095;48.942;9.104;2024-02-16T01:45:18;12.80;99.90
8105;DHT22;4095;48.942;9.104;2024-02-16T01:47:44;12.80;99.90
8105;DHT22;4095;48.942;9.104;2024-02-16T01:50:13;12.70;99.90
8105;DHT22;4095;48.942;9.104;2024-02-16T01:52:40;12.80;99.90
8105;DHT22;4095;48.942;9.104;2024-02-16T01:55:06;12.80;99.90
8105;DHT22;4095;48.942;9.104;2024-02-16T01:57:35;12.80;99.90
8105;DHT22;4095;48.942;9.104;2024-02-16T02:00:02;12.80;99.90
8105;DHT22;4095;48.942;9.104;2024-02-16T02:02:28;12.80;99.90
8105;DHT22;4095;48.942;9.104;2024-02-16T02:04:54;12.80;99.90
8105;DHT22;4095;48.942;9.104;2024-02-16T02:07:25;12.80;99.90
8105;DHT22;4095;48.942;9.104;2024-02-16T02:09:52;12.80;99.90
8105;DHT22;4095;48.942;9.104;2024-02-16T02:12:17;12.80;99.90
8105;DHT22;4095;48.942;9.104;2024-02-16T02:14:43;12.80;99.90
8105;DHT22;4095;48.942;9.104;2024-02-16T02:17:09;12.80;99.90
8105;DHT22;4095;48.942;9.104;2024-02-16T02:19:35;12.80;99.90
8105;DHT22;4095;48.942;9.104;2024-02-16T02:22:01;12.90;99.90
8105;DHT22;4095;48.942;9.104;2024-02-16T02:24:27;13.00;99.90
8105;DHT22;4095;48.942;9.104;2024-02-16T02:26:52;13.00;99.90
8105;DHT22;4095;48.942;9.104;2024-02-16T02:29:18;13.00;99.90
8105;DHT22;4095;48.942;9.104;2024-02-16T02:31:43;13.00;99.90
8105;DHT22;4095;48.942;9.104;2024-02-16T02:34:09;13.00;99.90
8105;DHT22;4095;48.942;9.104;2024-02-16T02:36:35;13.00;99.90
8105;DHT22;4095;48.942;9.104;2024-02-16T02:39:01;13.00;99.90
8105;DHT22;4095;48.942;9.104;2024-02-16T02:41:27;13.00;99.90
8105;DHT22;4095;48.942;9.104;2024-02-16T02:43:53;13.00;99.90
8105;DHT22;4095;48.942;9.104;2024-02-16T02:46:18;13.00;99.90
8105;DHT22;4095;48.942;9.104;2024-02-16T02:48:45;13.00;99.90
8105;DHT22;4095;48.942;9.104;2024-02-16T02:51:11;13.00;99.90
8105;DHT22;4095;48.942;9.104;2024-02-16T02:53:36;13.00;99.90
8105;DHT22;4095;48.942;9.104;2024-02-16T02:56:03;13.00;99.90
8105;DHT22;4095;48.942;9.104;2024-02-16T02:58:28;13.00;99.90
8105;DHT22;4095;48.942;9.104;2024-02-16T03:00:54;12.90;99.90
8105;DHT22;4095;48.942;9.104;2024-02-16T03:03:20;12.90;99.90
8105;DHT22;4095;48.942;9.104;2024-02-16T03:05:46;12.90;99.90
8105;DHT22;4095;48.942;9.104;2024-02-16T03:08:12;12.90;99.90
8105;DHT22;4095;48.942;9.104;2024-02-16T03:10:38;12.80;99.90
8105;DHT22;4095;48.942;9.104;2024-02-16T03:13:04;12.70;99.90
8105;DHT22;4095;48.942;9.104;2024-02-16T03:15:32;12.70;99.90
8105;DHT22;4095;48.942;9.104;2024-02-16T03:17:59;12.70;99.90
8105;DHT22;4095;48.942;9.104;2024-02-16T03:20:24;12.60;99.90
8105;DHT22;4095;48.942;9.104;2024-02-16T03:22:50;12.70;99.90
8105;DHT22;4095;48.942;9.104;2024-02-16T03:25:16;12.70;99.90
8105;DHT22;4095;48.942;9.104;2024-02-16T03:27:42;12.70;99.90
8105;DHT22;4095;48.942;9.104;2024-02-16T03:30:08;12.70;99.90
8105;DHT22;4095;48.942;9.104;2024-02-16T03:32:34;12.70;99.90
8105;DHT22;4095;48.942;9.104;2024-02-16T03:35:00;12.70;99.90
8105;DHT22;4095;48.942;9.104;2024-02-16T03:37:26;12.60;99.90
8105;DHT22;4095;48.942;9.104;2024-02-16T03:39:51;12.60;99.90
8105;DHT22;4095;48.942;9.104;2024-02-16T03:42:19;12.60;99.90
8105;DHT22;4095;48.942;9.104;2024-02-16T03:44:45;12.50;99.90
8105;DHT22;4095;48.942;9.104;2024-02-16T03:47:11;12.40;99.90
8105;DHT22;4095;48.942;9.104;2024-02-16T03:49:37;12.40;99.90
8105;DHT22;4095;48.942;9.104;2024-02-16T03:52:03;12.40;99.90
8105;DHT22;4095;48.942;9.104;2024-02-16T03:54:28;12.30;99.90
8105;DHT22;4095;48.942;9.104;2024-02-16T03:56:55;12.20;99.90
8105;DHT22;4095;48.942;9.104;2024-02-16T03:59:21;12.20;99.90
8105;DHT22;4095;48.942;9.104;2024-02-16T04:01:46;12.20;99.90
8105;DHT22;4095;48.942;9.104;2024-02-16T04:04:12;12.20;99.90
8105;DHT22;4095;48.942;9.104;2024-02-16T04:06:38;12.20;99.90
8105;DHT22;4095;48.942;9.104;2024-02-16T04:09:05;12.20;99.90
8105;DHT22;4095;48.942;9.104;2024-02-16T04:11:34;12.20;99.90
8105;DHT22;4095;48.942;9.104;2024-02-16T04:14:00;12.20;99.90
8105;DHT22;4095;48.942;9.104;2024-02-16T04:16:27;12.30;99.90
8105;DHT22;4095;48.942;9.104;2024-02-16T04:18:53;12.30;99.90
8105;DHT22;4095;48.942;9.104;2024-02-16T04:21:19;12.30;99.90
8105;DHT22;4095;48.942;9.104;2024-02-16T04:23:46;12.30;99.90
8105;DHT22;4095;48.942;9.104;2024-02-16T04:26:12;12.30;99.90
8105;DHT22;4095;48.942;9.104;2024-02-16T04:28:37;12.30;99.90
8105;DHT22;4095;48.942;9.104;2024-02-16T04:31:03;12.20;99.90
8105;DHT22;4095;48.942;9.104;2024-02-16T04:33:29;12.20;99.90
8105;DHT22;4095;48.942;9.104;2024-02-16T04:35:54;12.20;99.90
8105;DHT22;4095;48.942;9.104;2024-02-16T04:38:20;12.20;99.90
8105;DHT22;4095;48.942;9.104;2024-02-16T04:40:45;12.30;99.90
8105;DHT22;4095;48.942;9.104;2024-02-16T04:43:11;12.30;99.90
8105;DHT22;4095;48.942;9.104;2024-02-16T04:45:37;12.30;99.90
8105;DHT22;4095;48.942;9.104;2024-02-16T04:48:04;12.30;99.90
8105;DHT22;4095;48.942;9.104;2024-02-16T04:50:31;12.30;99.90
8105;DHT22;4095;48.942;9.104;2024-02-16T04:52:57;12.40;99.90
8105;DHT22;4095;48.942;9.104;2024-02-16T04:55:24;12.40;99.90
8105;DHT22;4095;48.942;9.104;2024-02-16T04:57:49;12.40;99.90
8105;DHT22;4095;48.942;9.104;2024-02-16T05:00:15;12.30;99.90
8105;DHT22;4095;48.942;9.104;2024-02-16T05:02:41;12.30;99.90
8105;DHT22;4095;48.942;9.104;2024-02-16T05:05:06;12.30;99.90
8105;DHT22;4095;48.942;9.104;2024-02-16T05:07:33;12.30;99.90
8105;DHT22;4095;48.942;9.104;2024-02-16T05:09:58;12.30;99.90
8105;DHT22;4095;48.942;9.104;2024-02-16T05:12:24;12.20;99.90
8105;DHT22;4095;48.942;9.104;2024-02-16T05:14:50;12.20;99.90
8105;DHT22;4095;48.942;9.104;2024-02-16T05:17:17;12.20;99.90
8105;DHT22;4095;48.942;9.104;2024-02-16T05:19:43;12.10;99.90
8105;DHT22;4095;48.942;9.104;2024-02-16T05:22:09;12.10;99.90
8105;DHT22;4095;48.942;9.104;2024-02-16T05:24:35;12.00;99.90
8105;DHT22;4095;48.942;9.104;2024-02-16T05:27:01;12.00;99.90
8105;DHT22;4095;48.942;9.104;2024-02-16T05:29:26;12.00;99.90
8105;DHT22;4095;48.942;9.104;2024-02-16T05:31:52;12.00;99.90
8105;DHT22;4095;48.942;9.104;2024-02-16T05:34:18;11.90;99.90
8105;DHT22;4095;48.942;9.104;2024-02-16T05:36:44;11.90;99.90
8105;DHT22;4095;48.942;9.104;2024-02-16T05:39:10;11.90;99.90
8105;DHT22;4095;48.942;9.104;2024-02-16T05:41:49;11.80;99.90
8105;DHT22;4095;48.942;9.104;2024-02-16T05:44:16;11.80;99.90
8105;DHT22;4095;48.942;9.104;2024-02-16T05:46:42;11.80;99.90
8105;DHT22;4095;48.942;9.104;2024-02-16T05:49:10;11.80;99.90
8105;DHT22;4095;48.942;9.104;2024-02-16T05:51:36;11.80;99.90
8105;DHT22;4095;48.942;9.104;2024-02-16T05:54:02;11.70;99.90
8105;DHT22;4095;48.942;9.104;2024-02-16T05:56:28;11.60;99.90
8105;DHT22;4095;48.942;9.104;2024-02-16T05:58:54;11.70;99.90
8105;DHT22;4095;48.942;9.104;2024-02-16T06:01:20;11.60;99.90
8105;DHT22;4095;48.942;9.104;2024-02-16T06:03:45;11.50;99.90
8105;DHT22;4095;48.942;9.104;2024-02-16T06:06:11;11.50;99.90
8105;DHT22;4095;48.942;9.104;2024-02-16T06:08:36;11.50;99.90
8105;DHT22;4095;48.942;9.104;2024-02-16T06:11:02;11.40;99.90
8105;DHT22;4095;48.942;9.104;2024-02-16T06:13:28;11.40;99.90
8105;DHT22;4095;48.942;9.104;2024-02-16T06:15:55;11.40;99.90
8105;DHT22;4095;48.942;9.104;2024-02-16T06:18:20;11.50;99.90
8105;DHT22;4095;48.942;9.104;2024-02-16T06:20:46;11.50;99.90
8105;DHT22;4095;48.942;9.104;2024-02-16T06:23:12;11.50;99.90
8105;DHT22;4095;48.942;9.104;2024-02-16T06:25:37;11.60;99.90
8105;DHT22;4095;48.942;9.104;2024-02-16T06:28:03;11.50;99.90
8105;DHT22;4095;48.942;9.104;2024-02-16T06:30:30;11.50;99.90
8105;DHT22;4095;48.942;9.104;2024-02-16T06:32:55;11.50;99.90
8105;DHT22;4095;48.942;9.104;2024-02-16T06:35:23;11.60;99.90
8105;DHT22;4095;48.942;9.104;2024-02-16T06:37:48;11.60;99.90
8105;DHT22;4095;48.942;9.104;2024-02-16T06:40:14;11.50;99.90
8105;DHT22;4095;48.942;9.104;2024-02-16T06:42:40;11.50;99.90
8105;DHT22;4095;48.942;9.104;2024-02-16T06:45:06;11.50;99.90
8105;DHT22;4095;48.942;9.104;2024-02-16T06:47:32;11.50;99.90
8105;DHT22;4095;48.942;9.104;2024-02-16T06:49:57;11.50;99.90
8105;DHT22;4095;48.942;9.104;2024-02-16T06:52:23;11.50;99.90
8105;DHT22;4095;48.942;9.104;2024-02-16T06:54:48;11.50;99.90
8105;DHT22;4095;48.942;9.104;2024-02-16T06:57:15;11.50;99.90
8105;DHT22;4095;48.942;9.104;2024-02-16T06:59:41;11.60;99.90
8105;DHT22;4095;48.942;9.104;2024-02-16T07:02:06;11.50;99.90
8105;DHT22;4095;48.942;9.104;2024-02-16T07:04:32;11.50;99.90
8105;DHT22;4095;48.942;9.104;2024-02-16T07:06:58;11.50;99.90
8105;DHT22;4095;48.942;9.104;2024-02-16T07:09:24;11.50;99.90
8105;DHT22;4095;48.942;9.104;2024-02-16T07:11:49;11.50;99.90
8105;DHT22;4095;48.942;9.104;2024-02-16T07:14:16;11.60;99.90
8105;DHT22;4095;48.942;9.104;2024-02-16T07:16:41;11.70;99.90
8105;DHT22;4095;48.942;9.104;2024-02-16T07:19:08;11.70;99.90
8105;DHT22;4095;48.942;9.104;2024-02-16T07:21:34;11.70;99.90
8105;DHT22;4095;48.942;9.104;2024-02-16T07:23:59;11.80;99.90
8105;DHT22;4095;48.942;9.104;2024-02-16T07:26:25;11.80;99.90
8105;DHT22;4095;48.942;9.104;2024-02-16T07:28:50;11.70;99.90
8105;DHT22;4095;48.942;9.104;2024-02-16T07:31:16;11.80;99.90
8105;DHT22;4095;48.942;9.104;2024-02-16T07:33:42;11.80;99.90
8105;DHT22;4095;48.942;9.104;2024-02-16T07:36:08;11.80;99.90
8105;DHT22;4095;48.942;9.104;2024-02-16T07:38:33;11.80;99.90
8105;DHT22;4095;48.942;9.104;2024-02-16T07:40:59;11.90;99.90
8105;DHT22;4095;48.942;9.104;2024-02-16T07:43:26;11.80;99.90
8105;DHT22;4095;48.942;9.104;2024-02-16T07:45:51;11.90;99.90
8105;DHT22;4095;48.942;9.104;2024-02-16T07:48:20;11.90;99.90
8105;DHT22;4095;48.942;9.104;2024-02-16T07:50:47;11.90;99.90
8105;DHT22;4095;48.942;9.104;2024-02-16T07:53:12;12.00;99.90
8105;DHT22;4095;48.942;9.104;2024-02-16T07:55:38;12.00;99.90
8105;DHT22;4095;48.942;9.104;2024-02-16T07:58:04;12.00;99.90
8105;DHT22;4095;48.942;9.104;2024-02-16T08:00:29;12.10;99.90
8105;DHT22;4095;48.942;9.104;2024-02-16T08:02:55;12.10;99.90
8105;DHT22;4095;48.942;9.104;2024-02-16T08:05:20;12.20;99.90
8105;DHT22;4095;48.942;9.104;2024-02-16T08:07:47;12.30;99.90
8105;DHT22;4095;48.942;9.104;2024-02-16T08:10:13;12.50;99.90
8105;DHT22;4095;48.942;9.104;2024-02-16T08:12:39;12.70;99.90
8105;DHT22;4095;48.942;9.104;2024-02-16T08:15:05;12.90;99.90
8105;DHT22;4095;48.942;9.104;2024-02-16T08:17:34;13.00;99.90
8105;DHT22;4095;48.942;9.104;2024-02-16T08:20:00;13.20;99.90
8105;DHT22;4095;48.942;9.104;2024-02-16T08:22:26;13.30;99.90
8105;DHT22;4095;48.942;9.104;2024-02-16T08:24:51;13.40;99.90
8105;DHT22;4095;48.942;9.104;2024-02-16T08:27:17;13.50;99.90
8105;DHT22;4095;48.942;9.104;2024-02-16T08:29:43;13.70;99.90
8105;DHT22;4095;48.942;9.104;2024-02-16T08:32:09;13.80;99.90
8105;DHT22;4095;48.942;9.104;2024-02-16T08:34:35;13.80;99.90
8105;DHT22;4095;48.942;9.104;2024-02-16T08:37:04;13.90;99.90
8105;DHT22;4095;48.942;9.104;2024-02-16T08:39:31;14.00;99.90
8105;DHT22;4095;48.942;9.104;2024-02-16T08:41:57;14.10;99.90
8105;DHT22;4095;48.942;9.104;2024-02-16T08:44:25;14.10;99.90
8105;DHT22;4095;48.942;9.104;2024-02-16T08:46:51;14.20;99.90
8105;DHT22;4095;48.942;9.104;2024-02-16T08:49:16;14.30;99.90
8105;DHT22;4095;48.942;9.104;2024-02-16T08:51:43;14.40;99.90
8105;DHT22;4095;48.942;9.104;2024-02-16T08:54:08;14.50;99.90
8105;DHT22;4095;48.942;9.104;2024-02-16T08:56:36;14.50;99.90
8105;DHT22;4095;48.942;9.104;2024-02-16T08:59:07;14.50;99.90
8105;DHT22;4095;48.942;9.104;2024-02-16T09:01:34;14.60;99.90
8105;DHT22;4095;48.942;9.104;2024-02-16T09:04:00;14.80;99.90
8105;DHT22;4095;48.942;9.104;2024-02-16T09:06:26;15.00;99.90
8105;DHT22;4095;48.942;9.104;2024-02-16T09:08:52;15.20;99.90
8105;DHT22;4095;48.942;9.104;2024-02-16T09:11:18;15.40;99.90
8105;DHT22;4095;48.942;9.104;2024-02-16T09:13:43;15.60;99.90
8105;DHT22;4095;48.942;9.104;2024-02-16T09:16:09;15.80;99.90
8105;DHT22;4095;48.942;9.104;2024-02-16T09:18:35;16.00;99.90
8105;DHT22;4095;48.942;9.104;2024-02-16T09:21:03;16.10;99.90
8105;DHT22;4095;48.942;9.104;2024-02-16T09:23:29;16.20;99.90
8105;DHT22;4095;48.942;9.104;2024-02-16T09:25:54;16.30;99.90
8105;DHT22;4095;48.942;9.104;2024-02-16T09:28:20;16.40;99.90
8105;DHT22;4095;48.942;9.104;2024-02-16T09:30:47;16.40;99.90
8105;DHT22;4095;48.942;9.104;2024-02-16T09:33:12;16.50;99.90
8105;DHT22;4095;48.942;9.104;2024-02-16T09:35:42;16.70;99.90
8105;DHT22;4095;48.942;9.104;2024-02-16T09:38:08;16.90;99.90
8105;DHT22;4095;48.942;9.104;2024-02-16T09:40:36;17.10;99.90
8105;DHT22;4095;48.942;9.104;2024-02-16T09:43:02;17.10;99.90
8105;DHT22;4095;48.942;9.104;2024-02-16T09:45:29;17.10;99.90
8105;DHT22;4095;48.942;9.104;2024-02-16T09:47:55;17.10;99.90
8105;DHT22;4095;48.942;9.104;2024-02-16T09:50:22;17.00;99.90
8105;DHT22;4095;48.942;9.104;2024-02-16T09:52:50;17.10;99.90
8105;DHT22;4095;48.942;9.104;2024-02-16T09:55:16;17.10;99.90
8105;DHT22;4095;48.942;9.104;2024-02-16T09:57:43;17.20;99.90
8105;DHT22;4095;48.942;9.104;2024-02-16T10:00:10;17.20;99.90
8105;DHT22;4095;48.942;9.104;2024-02-16T10:02:48;17.30;99.90
8105;DHT22;4095;48.942;9.104;2024-02-16T10:05:19;17.40;99.90
8105;DHT22;4095;48.942;9.104;2024-02-16T10:07:46;17.30;99.90
8105;DHT22;4095;48.942;9.104;2024-02-16T10:10:22;17.30;99.90
8105;DHT22;4095;48.942;9.104;2024-02-16T10:12:48;17.40;99.90
8105;DHT22;4095;48.942;9.104;2024-02-16T10:15:20;17.40;99.90
8105;DHT22;4095;48.942;9.104;2024-02-16T10:18:06;17.50;99.90
8105;DHT22;4095;48.942;9.104;2024-02-16T10:20:33;17.50;99.90
8105;DHT22;4095;48.942;9.104;2024-02-16T10:23:07;17.50;99.90
8105;DHT22;4095;48.942;9.104;2024-02-16T10:25:38;17.50;99.90
8105;DHT22;4095;48.942;9.104;2024-02-16T10:28:10;17.50;99.90
8105;DHT22;4095;48.942;9.104;2024-02-16T10:30:38;17.60;99.90
8105;DHT22;4095;48.942;9.104;2024-02-16T10:33:05;17.60;99.90
8105;DHT22;4095;48.942;9.104;2024-02-16T10:35:35;17.60;99.90
8105;DHT22;4095;48.942;9.104;2024-02-16T10:38:04;17.70;99.90
8105;DHT22;4095;48.942;9.104;2024-02-16T10:40:37;17.80;99.90
8105;DHT22;4095;48.942;9.104;2024-02-16T10:43:04;17.80;99.90
8105;DHT22;4095;48.942;9.104;2024-02-16T10:45:35;17.90;99.90
8105;DHT22;4095;48.942;9.104;2024-02-16T10:48:02;18.00;99.90
8105;DHT22;4095;48.942;9.104;2024-02-16T10:50:28;18.10;99.90
8105;DHT22;4095;48.942;9.104;2024-02-16T10:52:56;18.20;99.90
8105;DHT22;4095;48.942;9.104;2024-02-16T10:55:23;18.30;99.90
8105;DHT22;4095;48.942;9.104;2024-02-16T10:57:50;18.50;99.90
8105;DHT22;4095;48.942;9.104;2024-02-16T11:00:16;18.50;99.90
8105;DHT22;4095;48.942;9.104;2024-02-16T11:02:58;18.50;99.90
8105;DHT22;4095;48.942;9.104;2024-02-16T11:05:35;18.50;99.90
8105;DHT22;4095;48.942;9.104;2024-02-16T11:08:11;18.50;99.90
8105;DHT22;4095;48.942;9.104;2024-02-16T11:10:37;18.50;99.90
8105;DHT22;4095;48.942;9.104;2024-02-16T11:13:03;18.50;99.90
8105;DHT22;4095;48.942;9.104;2024-02-16T11:15:33;18.50;99.90
8105;DHT22;4095;48.942;9.104;2024-02-16T11:18:02;18.50;99.90
8105;DHT22;4095;48.942;9.104;2024-02-16T11:20:29;18.60;99.90
8105;DHT22;4095;48.942;9.104;2024-02-16T11:23:05;19.00;99.90
8105;DHT22;4095;48.942;9.104;2024-02-16T11:25:33;19.40;99.90
8105;DHT22;4095;48.942;9.104;2024-02-16T11:27:59;19.80;99.90
8105;DHT22;4095;48.942;9.104;2024-02-16T11:30:25;21.10;99.90
8105;DHT22;4095;48.942;9.104;2024-02-16T11:32:53;22.20;97.70
8105;DHT22;4095;48.942;9.104;2024-02-16T11:35:19;22.50;97.50
8105;DHT22;4095;48.942;9.104;2024-02-16T11:37:45;23.10;96.90
8105;DHT22;4095;48.942;9.104;2024-02-16T11:40:13;24.40;95.80
8105;DHT22;4095;48.942;9.104;2024-02-16T11:42:38;25.90;93.70
8105;DHT22;4095;48.942;9.104;2024-02-16T11:45:04;26.60;92.80
8105;DHT22;4095;48.942;9.104;2024-02-16T11:47:31;26.70;92.10
8105;DHT22;4095;48.942;9.104;2024-02-16T11:50:08;26.60;91.70
8105;DHT22;4095;48.942;9.104;2024-02-16T11:52:38;26.50;91.10
8105;DHT22;4095;48.942;9.104;2024-02-16T11:55:07;26.20;91.90
8105;DHT22;4095;48.942;9.104;2024-02-16T11:57:34;26.00;91.70
8105;DHT22;4095;48.942;9.104;2024-02-16T12:00:00;25.90;91.30
8105;DHT22;4095;48.942;9.104;2024-02-16T12:02:29;25.60;92.00
8105;DHT22;4095;48.942;9.104;2024-02-16T12:04:58;24.80;91.80
8105;DHT22;4095;48.942;9.104;2024-02-16T12:07:28;24.20;92.90
8105;DHT22;4095;48.942;9.104;2024-02-16T12:09:58;23.60;93.20
8105;DHT22;4095;48.942;9.104;2024-02-16T12:12:24;22.90;93.90
8105;DHT22;4095;48.942;9.104;2024-02-16T12:14:50;22.40;94.90
8105;DHT22;4095;48.942;9.104;2024-02-16T12:17:16;21.90;95.20
8105;DHT22;4095;48.942;9.104;2024-02-16T12:19:45;21.50;95.90
8105;DHT22;4095;48.942;9.104;2024-02-16T12:22:25;21.10;96.00
8105;DHT22;4095;48.942;9.104;2024-02-16T12:24:51;20.80;96.90
8105;DHT22;4095;48.942;9.104;2024-02-16T12:27:16;20.40;97.00
8105;DHT22;4095;48.942;9.104;2024-02-16T12:29:42;20.20;97.40
8105;DHT22;4095;48.942;9.104;2024-02-16T12:32:08;20.00;97.80
8105;DHT22;4095;48.942;9.104;2024-02-16T12:34:37;19.90;98.40
8105;DHT22;4095;48.942;9.104;2024-02-16T12:37:06;19.90;99.10
8105;DHT22;4095;48.942;9.104;2024-02-16T12:39:37;19.80;99.00
8105;DHT22;4095;48.942;9.104;2024-02-16T12:42:02;19.80;99.30
8105;DHT22;4095;48.942;9.104;2024-02-16T12:44:28;19.70;99.00
8105;DHT22;4095;48.942;9.104;2024-02-16T12:46:54;19.60;99.10
8105;DHT22;4095;48.942;9.104;2024-02-16T12:49:19;19.60;99.60
8105;DHT22;4095;48.942;9.104;2024-02-16T12:51:50;19.50;99.60
8105;DHT22;4095;48.942;9.104;2024-02-16T12:54:17;19.50;99.50
8105;DHT22;4095;48.942;9.104;2024-02-16T12:56:45;19.50;99.80
8105;DHT22;4095;48.942;9.104;2024-02-16T12:59:11;19.50;99.80
8105;DHT22;4095;48.942;9.104;2024-02-16T13:01:37;19.40;99.90
8105;DHT22;4095;48.942;9.104;2024-02-16T13:04:02;19.30;99.90
8105;DHT22;4095;48.942;9.104;2024-02-16T13:06:28;19.20;99.90
8105;DHT22;4095;48.942;9.104;2024-02-16T13:08:54;19.30;99.90
8105;DHT22;4095;48.942;9.104;2024-02-16T13:11:19;19.30;99.90
8105;DHT22;4095;48.942;9.104;2024-02-16T13:13:45;19.30;99.90
8105;DHT22;4095;48.942;9.104;2024-02-16T13:16:10;19.30;99.90
8105;DHT22;4095;48.942;9.104;2024-02-16T13:18:36;19.20;99.90
8105;DHT22;4095;48.942;9.104;2024-02-16T13:21:02;19.20;99.90
8105;DHT22;4095;48.942;9.104;2024-02-16T13:23:27;19.30;99.90
8105;DHT22;4095;48.942;9.104;2024-02-16T13:25:54;19.30;99.90
8105;DHT22;4095;48.942;9.104;2024-02-16T13:28:20;19.30;99.90
8105;DHT22;4095;48.942;9.104;2024-02-16T13:30:46;19.30;99.90
8105;DHT22;4095;48.942;9.104;2024-02-16T13:33:11;19.20;99.90
8105;DHT22;4095;48.942;9.104;2024-02-16T13:35:37;19.20;99.90
8105;DHT22;4095;48.942;9.104;2024-02-16T13:38:03;19.20;99.90
8105;DHT22;4095;48.942;9.104;2024-02-16T13:40:29;19.20;99.90
8105;DHT22;4095;48.942;9.104;2024-02-16T13:42:55;19.30;99.90
8105;DHT22;4095;48.942;9.104;2024-02-16T13:45:27;19.30;99.90
8105;DHT22;4095;48.942;9.104;2024-02-16T13:47:53;19.20;99.90
8105;DHT22;4095;48.942;9.104;2024-02-16T13:50:18;19.20;99.90
8105;DHT22;4095;48.942;9.104;2024-02-16T13:52:44;19.20;99.90
8105;DHT22;4095;48.942;9.104;2024-02-16T13:55:10;19.10;99.90
8105;DHT22;4095;48.942;9.104;2024-02-16T13:57:36;19.20;99.90
8105;DHT22;4095;48.942;9.104;2024-02-16T14:00:01;19.10;99.90
8105;DHT22;4095;48.942;9.104;2024-02-16T14:02:27;19.10;99.90
8105;DHT22;4095;48.942;9.104;2024-02-16T14:04:53;19.10;99.90
8105;DHT22;4095;48.942;9.104;2024-02-16T14:07:21;19.00;99.90
8105;DHT22;4095;48.942;9.104;2024-02-16T14:09:47;19.00;99.90
8105;DHT22;4095;48.942;9.104;2024-02-16T14:12:13;19.00;99.90
8105;DHT22;4095;48.942;9.104;2024-02-16T14:14:39;18.90;99.90
8105;DHT22;4095;48.942;9.104;2024-02-16T14:17:04;18.90;99.90
8105;DHT22;4095;48.942;9.104;2024-02-16T14:19:30;18.90;99.90
8105;DHT22;4095;48.942;9.104;2024-02-16T14:21:55;18.90;99.90
8105;DHT22;4095;48.942;9.104;2024-02-16T14:24:21;18.90;99.90
8105;DHT22;4095;48.942;9.104;2024-02-16T14:26:47;18.80;99.90
8105;DHT22;4095;48.942;9.104;2024-02-16T14:29:13;18.80;99.90
8105;DHT22;4095;48.942;9.104;2024-02-16T14:31:38;18.80;99.90
8105;DHT22;4095;48.942;9.104;2024-02-16T14:34:04;18.80;99.90
8105;DHT22;4095;48.942;9.104;2024-02-16T14:36:30;18.70;99.90
8105;DHT22;4095;48.942;9.104;2024-02-16T14:38:55;18.70;99.90
8105;DHT22;4095;48.942;9.104;2024-02-16T14:41:21;18.60;99.90
8105;DHT22;4095;48.942;9.104;2024-02-16T14:43:48;18.50;99.90
8105;DHT22;4095;48.942;9.104;2024-02-16T14:46:13;18.50;99.90
8105;DHT22;4095;48.942;9.104;2024-02-16T14:48:41;18.50;99.90
8105;DHT22;4095;48.942;9.104;2024-02-16T14:51:06;18.50;99.90
8105;DHT22;4095;48.942;9.104;2024-02-16T14:53:32;18.40;99.90
8105;DHT22;4095;48.942;9.104;2024-02-16T14:55:59;18.40;99.90
8105;DHT22;4095;48.942;9.104;2024-02-16T14:58:25;18.40;99.90
8105;DHT22;4095;48.942;9.104;2024-02-16T15:00:51;18.30;99.90
8105;DHT22;4095;48.942;9.104;2024-02-16T15:03:17;18.40;99.90
8105;DHT22;4095;48.942;9.104;2024-02-16T15:05:44;18.30;99.90
8105;DHT22;4095;48.942;9.104;2024-02-16T15:08:11;18.30;99.90
8105;DHT22;4095;48.942;9.104;2024-02-16T15:10:36;18.30;99.90
8105;DHT22;4095;48.942;9.104;2024-02-16T15:13:02;18.30;99.90
8105;DHT22;4095;48.942;9.104;2024-02-16T15:15:27;18.30;99.90
8105;DHT22;4095;48.942;9.104;2024-02-16T15:17:53;18.30;99.90
8105;DHT22;4095;48.942;9.104;2024-02-16T15:20:18;18.20;99.90
8105;DHT22;4095;48.942;9.104;2024-02-16T15:22:47;18.30;99.90
8105;DHT22;4095;48.942;9.104;2024-02-16T15:25:13;18.20;99.90
8105;DHT22;4095;48.942;9.104;2024-02-16T15:27:39;18.30;99.90
8105;DHT22;4095;48.942;9.104;2024-02-16T15:30:05;18.30;99.90
8105;DHT22;4095;48.942;9.104;2024-02-16T15:32:31;18.30;99.90
8105;DHT22;4095;48.942;9.104;2024-02-16T15:34:57;18.20;99.90
8105;DHT22;4095;48.942;9.104;2024-02-16T15:37:22;18.20;99.90
8105;DHT22;4095;48.942;9.104;2024-02-16T15:39:48;18.20;99.90
8105;DHT22;4095;48.942;9.104;2024-02-16T15:42:18;18.20;99.90
8105;DHT22;4095;48.942;9.104;2024-02-16T15:44:44;18.10;99.90
8105;DHT22;4095;48.942;9.104;2024-02-16T15:47:09;18.10;99.90
8105;DHT22;4095;48.942;9.104;2024-02-16T15:49:37;18.10;99.90
8105;DHT22;4095;48.942;9.104;2024-02-16T15:52:03;18.00;99.90
8105;DHT22;4095;48.942;9.104;2024-02-16T15:54:29;18.00;99.90
8105;DHT22;4095;48.942;9.104;2024-02-16T15:56:55;18.00;99.90